Time;durP1;ratioP1;P1;durP2;ratioP2;P2;SDS_P1;SDS_P2;PMS_P1;PMS_P2;Temp;Humidity;BMP_temperature;BMP_pressure;BME280_temperature;BME280_humidity;BME280_pressure;Samples;Min_cycle;Max_cycle;Signal;HPM_P1;HPM_P2
2021/06/07 00:01:45;;;;;;;4.57;3.47;;;;;;;;;;5009647;28;20524;-49
2021/06/07 00:04:12;;;;;;;3.22;2.72;;;;;;;;;;5029166;28;20053;-50
2021/06/07 00:06:41;;;;;;;6.07;3.20;;;;;;;;;;5022549;28;20022;-51
2021/06/07 00:09:08;;;;;;;4.97;2.85;;;;;;;;;;5013320;28;20030;-55
2021/06/07 00:11:36;;;;;;;4.45;3.17;;;;;;;;;;5012522;28;20120;-50
2021/06/07 00:14:02;;;;;;;9.23;3.22;;;;;;;;;;5031681;28;20064;-49
2021/06/07 00:16:29;;;;;;;3.47;2.80;;;;;;;;;;5025152;28;20026;-49
2021/06/07 00:18:55;;;;;;;6.32;3.00;;;;;;;;;;5024405;28;20029;-49
2021/06/07 00:21:22;;;;;;;6.78;2.88;;;;;;;;;;5013941;28;20021;-49
2021/06/07 00:23:49;;;;;;;4.93;3.17;;;;;;;;;;5023181;28;20156;-50
2021/06/07 00:26:15;;;;;;;4.80;2.70;;;;;;;;;;5018328;28;20044;-49
2021/06/07 00:28:41;;;;;;;4.00;2.40;;;;;;;;;;5013873;28;20042;-48
2021/06/07 00:31:08;;;;;;;4.30;3.00;;;;;;;;;;5014829;28;20053;-49
2021/06/07 00:33:34;;;;;;;3.67;2.58;;;;;;;;;;5022745;28;20605;-49
2021/06/07 00:36:00;;;;;;;6.97;3.28;;;;;;;;;;5025222;28;20048;-49
2021/06/07 00:38:26;;;;;;;5.47;3.15;;;;;;;;;;5033404;28;20052;-49
2021/06/07 00:40:52;;;;;;;4.28;3.00;;;;;;;;;;5021026;28;20026;-51
2021/06/07 00:43:18;;;;;;;6.97;2.97;;;;;;;;;;5015520;28;20157;-52
2021/06/07 00:45:44;;;;;;;3.35;2.67;;;;;;;;;;5018229;28;20025;-49
2021/06/07 00:48:11;;;;;;;2.92;2.45;;;;;;;;;;5013540;28;20101;-49
2021/06/07 00:50:39;;;;;;;4.22;2.80;;;;;;;;;;5012752;28;20430;-50
2021/06/07 00:53:11;;;;;;;4.18;2.63;;;;;;;;;;5010825;28;20038;-48
2021/06/07 00:55:37;;;;;;;3.13;2.50;;;;;;;;;;5014221;28;20045;-49
2021/06/07 00:58:04;;;;;;;3.75;2.47;;;;;;;;;;5015740;28;20540;-49
2021/06/07 01:00:30;;;;;;;3.67;2.90;;;;;;;;;;5014794;28;20025;-50
2021/06/07 01:02:56;;;;;;;4.90;3.17;;;;;;;;;;5012881;28;20042;-50
2021/06/07 01:05:22;;;;;;;4.22;2.88;;;;;;;;;;5012264;28;20022;-49
2021/06/07 01:07:48;;;;;;;3.65;2.58;;;;;;;;;;5013017;28;20033;-50
2021/06/07 01:10:15;;;;;;;3.75;2.67;;;;;;;;;;5012598;28;20439;-49
2021/06/07 01:12:41;;;;;;;4.32;2.78;;;;;;;;;;5012457;28;20018;-48
2021/06/07 01:15:08;;;;;;;7.68;3.22;;;;;;;;;;5012655;28;20044;-50
2021/06/07 01:17:34;;;;;;;4.28;3.15;;;;;;;;;;5012606;28;20061;-49
2021/06/07 01:20:00;;;;;;;5.43;3.05;;;;;;;;;;5012446;28;20151;-48
2021/06/07 01:22:26;;;;;;;4.68;3.15;;;;;;;;;;5012504;28;20026;-49
2021/06/07 01:24:52;;;;;;;6.45;3.03;;;;;;;;;;5012137;28;20161;-50
2021/06/07 01:27:18;;;;;;;4.07;2.90;;;;;;;;;;5011872;28;20044;-49
2021/06/07 01:29:44;;;;;;;5.07;3.53;;;;;;;;;;5012626;28;20045;-49
2021/06/07 01:32:10;;;;;;;3.58;2.88;;;;;;;;;;5015491;28;20042;-49
2021/06/07 01:34:36;;;;;;;5.85;3.33;;;;;;;;;;5012426;28;20501;-48
2021/06/07 01:37:03;;;;;;;4.25;2.55;;;;;;;;;;5004743;28;20148;-48
2021/06/07 01:39:29;;;;;;;4.30;3.15;;;;;;;;;;5012598;28;20141;-49
2021/06/07 01:41:55;;;;;;;5.28;2.95;;;;;;;;;;5012251;28;20117;-49
2021/06/07 01:44:21;;;;;;;6.47;3.25;;;;;;;;;;5017566;28;20033;-48
2021/06/07 01:46:47;;;;;;;3.90;3.03;;;;;;;;;;5011913;28;20067;-52
2021/06/07 01:49:15;;;;;;;4.57;3.60;;;;;;;;;;5012797;28;20033;-48
2021/06/07 01:51:41;;;;;;;5.47;3.58;;;;;;;;;;5012102;28;20109;-48
2021/06/07 01:54:07;;;;;;;3.55;3.00;;;;;;;;;;5012798;28;20034;-49
2021/06/07 01:56:33;;;;;;;6.55;3.35;;;;;;;;;;5019176;28;20535;-49
2021/06/07 01:58:59;;;;;;;5.07;3.15;;;;;;;;;;5012141;28;20064;-52
2021/06/07 02:01:25;;;;;;;3.40;2.85;;;;;;;;;;5015879;28;20029;-50
2021/06/07 02:03:51;;;;;;;4.50;3.35;;;;;;;;;;5024319;28;20140;-49
2021/06/07 02:06:22;;;;;;;4.45;3.22;;;;;;;;;;5026251;28;20029;-48
2021/06/07 02:08:48;;;;;;;7.45;3.75;;;;;;;;;;5012215;28;20034;-51
2021/06/07 02:11:16;;;;;;;7.20;3.80;;;;;;;;;;5022640;28;20037;-49
2021/06/07 02:13:45;;;;;;;4.35;3.60;;;;;;;;;;5025410;28;20167;-49
2021/06/07 02:16:15;;;;;;;5.15;3.20;;;;;;;;;;5024594;28;20105;-48
2021/06/07 02:18:41;;;;;;;4.70;3.42;;;;;;;;;;5012731;28;20474;-51
2021/06/07 02:21:08;;;;;;;6.50;3.35;;;;;;;;;;5017287;28;20072;-49
2021/06/07 02:23:34;;;;;;;4.13;3.20;;;;;;;;;;5012229;28;20038;-50
2021/06/07 02:26:01;;;;;;;9.02;4.13;;;;;;;;;;5017848;28;20029;-50
2021/06/07 02:28:27;;;;;;;7.38;3.20;;;;;;;;;;5012664;28;20034;-49
2021/06/07 02:30:53;;;;;;;4.68;3.33;;;;;;;;;;5013301;28;20121;-48
2021/06/07 02:33:19;;;;;;;4.43;3.45;;;;;;;;;;5012035;28;20034;-49
2021/06/07 02:35:46;;;;;;;6.13;4.00;;;;;;;;;;5031279;28;20121;-48
2021/06/07 02:38:12;;;;;;;6.95;4.25;;;;;;;;;;5020333;28;20381;-48
2021/06/07 02:40:38;;;;;;;5.22;3.75;;;;;;;;;;5025430;28;20030;-48
2021/06/07 02:43:05;;;;;;;6.28;3.80;;;;;;;;;;5019486;28;20084;-49
2021/06/07 02:45:31;;;;;;;6.03;3.47;;;;;;;;;;5024543;28;20032;-48
2021/06/07 02:47:58;;;;;;;5.30;4.30;;;;;;;;;;5015009;28;20033;-49
2021/06/07 02:50:26;;;;;;;6.75;3.90;;;;;;;;;;5014693;28;20049;-49
2021/06/07 02:52:52;;;;;;;5.60;3.90;;;;;;;;;;5015218;28;20017;-49
2021/06/07 02:55:25;;;;;;;6.82;3.50;;;;;;;;;;5014214;28;20076;-53
2021/06/07 02:57:51;;;;;;;;;;;;;;;;;;5014968;28;20526;-49
2021/06/07 03:00:20;;;;;;;5.72;3.60;;;;;;;;;;5014151;28;19949;-49
2021/06/07 03:02:46;;;;;;;5.20;3.60;;;;;;;;;;5010199;28;20112;-49
2021/06/07 03:05:13;;;;;;;5.32;3.38;;;;;;;;;;5014464;28;20037;-48
2021/06/07 03:07:39;;;;;;;6.50;3.90;;;;;;;;;;5014730;28;20037;-48
2021/06/07 03:10:06;;;;;;;6.70;3.92;;;;;;;;;;5014993;28;20022;-49
2021/06/07 03:12:32;;;;;;;5.80;3.72;;;;;;;;;;5015175;28;20109;-51
2021/06/07 03:14:58;;;;;;;5.00;3.80;;;;;;;;;;5017583;28;20031;-49
2021/06/07 03:17:24;;;;;;;4.55;3.40;;;;;;;;;;5012799;28;20030;-49
2021/06/07 03:19:50;;;;;;;5.00;3.38;;;;;;;;;;5013960;28;20049;-49
2021/06/07 03:22:20;;;;;;;6.60;3.90;;;;;;;;;;5013700;28;20022;-48
2021/06/07 03:24:46;;;;;;;6.60;4.10;;;;;;;;;;5013230;28;20045;-49
2021/06/07 03:27:12;;;;;;;5.68;3.95;;;;;;;;;;5016240;28;20041;-51
2021/06/07 03:29:38;;;;;;;9.70;3.80;;;;;;;;;;5015346;28;20449;-50
2021/06/07 03:32:04;;;;;;;4.10;3.40;;;;;;;;;;5014161;28;20073;-50
2021/06/07 03:34:30;;;;;;;6.18;3.65;;;;;;;;;;5014835;28;20034;-50
2021/06/07 03:36:56;;;;;;;5.15;3.90;;;;;;;;;;5011631;28;20056;-49
2021/06/07 03:39:22;;;;;;;5.78;3.97;;;;;;;;;;5014586;28;20029;-48
2021/06/07 03:41:48;;;;;;;5.68;3.78;;;;;;;;;;5027048;28;20034;-48
2021/06/07 03:44:14;;;;;;;5.13;4.28;;;;;;;;;;5022318;28;20109;-48
2021/06/07 03:46:40;;;;;;;5.93;3.80;;;;;;;;;;5015927;28;20042;-50
2021/06/07 03:49:06;;;;;;;5.63;4.05;;;;;;;;;;5012235;28;20112;-48
2021/06/07 03:51:33;;;;;;;5.85;4.05;;;;;;;;;;5012140;28;20026;-48
2021/06/07 03:53:59;;;;;;;8.13;3.67;;;;;;;;;;5013458;28;20568;-49
2021/06/07 03:56:25;;;;;;;5.32;3.83;;;;;;;;;;5021939;28;20033;-48
2021/06/07 03:58:51;;;;;;;6.55;3.75;;;;;;;;;;5013748;28;20034;-50
2021/06/07 04:01:17;;;;;;;5.15;3.90;;;;;;;;;;5012475;28;20493;-49
2021/06/07 04:03:43;;;;;;;5.07;3.85;;;;;;;;;;5013478;28;20025;-48
2021/06/07 04:06:09;;;;;;;4.68;3.63;;;;;;;;;;5012401;28;20030;-49
2021/06/07 04:08:35;;;;;;;5.45;3.97;;;;;;;;;;5013772;28;20036;-48
2021/06/07 04:11:01;;;;;;;7.35;4.10;;;;;;;;;;5013049;28;20064;-50
2021/06/07 04:13:27;;;;;;;6.43;4.20;;;;;;;;;;5013287;28;20030;-50
2021/06/07 04:15:53;;;;;;;5.15;3.50;;;;;;;;;;5011588;28;20544;-53
2021/06/07 04:18:19;;;;;;;7.13;4.30;;;;;;;;;;5019660;28;20029;-49
2021/06/07 04:20:45;;;;;;;7.82;4.50;;;;;;;;;;5012284;28;20038;-48
2021/06/07 04:23:11;;;;;;;5.78;4.05;;;;;;;;;;5016972;28;20393;-48
2021/06/07 04:25:37;;;;;;;4.35;3.85;;;;;;;;;;5008764;28;20121;-48
2021/06/07 04:28:04;;;;;;;5.43;3.78;;;;;;;;;;5012738;28;20037;-48
2021/06/07 04:30:31;;;;;;;7.03;4.15;;;;;;;;;;5012532;28;20654;-50
2021/06/07 04:32:58;;;;;;;10.02;4.32;;;;;;;;;;5012355;28;20105;-49
2021/06/07 04:35:25;;;;;;;8.23;4.28;;;;;;;;;;5012097;28;20166;-48
2021/06/07 04:37:53;;;;;;;7.35;4.05;;;;;;;;;;5012535;28;20040;-48
2021/06/07 04:40:24;;;;;;;5.97;3.72;;;;;;;;;;5012375;28;20030;-48
2021/06/07 04:42:50;;;;;;;9.23;4.07;;;;;;;;;;5012069;28;20556;-49
2021/06/07 04:45:17;;;;;;;6.90;3.60;;;;;;;;;;5013337;28;20117;-48
2021/06/07 04:47:43;;;;;;;6.60;4.07;;;;;;;;;;5011290;28;20041;-49
2021/06/07 04:50:11;;;;;;;6.90;3.90;;;;;;;;;;5012943;28;20022;-49
2021/06/07 04:52:56;;;;;;;10.43;4.07;;;;;;;;;;5012290;28;20018;-49
2021/06/07 04:55:22;;;;;;;5.03;3.70;;;;;;;;;;5011798;28;20038;-49
2021/06/07 04:57:48;;;;;;;5.60;3.70;;;;;;;;;;5013371;28;20037;-49
2021/06/07 05:00:14;;;;;;;7.95;4.20;;;;;;;;;;5010448;28;20474;-48
2021/06/07 05:02:40;;;;;;;7.85;4.28;;;;;;;;;;5012454;28;20041;-49
2021/06/07 05:05:06;;;;;;;5.43;3.53;;;;;;;;;;5011790;28;20018;-49
2021/06/07 05:07:32;;;;;;;6.25;3.90;;;;;;;;;;5016767;28;20030;-49
2021/06/07 05:09:58;;;;;;;4.82;3.40;;;;;;;;;;5016436;28;20544;-49
2021/06/07 05:12:24;;;;;;;8.10;3.75;;;;;;;;;;5013134;28;20398;-50
2021/06/07 05:14:50;;;;;;;5.93;3.65;;;;;;;;;;5014025;28;20041;-48
2021/06/07 05:17:16;;;;;;;7.28;3.42;;;;;;;;;;5012891;28;20037;-48
2021/06/07 05:19:42;;;;;;;4.95;3.00;;;;;;;;;;5012159;28;20499;-50
2021/06/07 05:22:08;;;;;;;4.82;3.20;;;;;;;;;;5011950;28;20025;-49
2021/06/07 05:24:34;;;;;;;5.85;3.90;;;;;;;;;;5023285;28;20037;-48
2021/06/07 05:27:01;;;;;;;7.90;3.22;;;;;;;;;;5017259;28;20033;-48
2021/06/07 05:29:27;;;;;;;7.32;3.63;;;;;;;;;;5011224;28;20044;-49
2021/06/07 05:31:53;;;;;;;5.88;3.60;;;;;;;;;;5016983;28;20053;-48
2021/06/07 05:34:19;;;;;;;5.53;3.50;;;;;;;;;;5012981;28;20029;-50
2021/06/07 05:36:45;;;;;;;8.10;3.58;;;;;;;;;;5013061;28;20105;-49
2021/06/07 05:39:15;;;;;;;11.20;3.80;;;;;;;;;;5009434;28;20363;-49
2021/06/07 05:41:41;;;;;;;4.63;3.10;;;;;;;;;;5025694;28;20471;-50
2021/06/07 05:44:07;;;;;;;5.50;3.38;;;;;;;;;;5022187;28;20030;-50
2021/06/07 05:46:33;;;;;;;10.45;3.90;;;;;;;;;;5012573;28;20338;-48
2021/06/07 05:48:59;;;;;;;4.38;3.28;;;;;;;;;;5010016;28;20033;-52
2021/06/07 05:51:25;;;;;;;6.40;3.55;;;;;;;;;;5009599;28;20117;-49
2021/06/07 05:53:51;;;;;;;5.18;2.95;;;;;;;;;;5011437;28;20034;-54
2021/06/07 05:56:17;;;;;;;6.05;3.30;;;;;;;;;;5016614;28;20037;-49
2021/06/07 05:58:43;;;;;;;5.53;3.15;;;;;;;;;;5010705;28;20516;-50
2021/06/07 06:01:09;;;;;;;6.28;3.15;;;;;;;;;;5026423;28;20029;-52
2021/06/07 06:03:35;;;;;;;6.40;3.13;;;;;;;;;;5004582;28;20046;-51
2021/06/07 06:06:01;;;;;;;7.95;3.72;;;;;;;;;;5011263;28;20034;-53
2021/06/07 06:08:27;;;;;;;7.82;4.03;;;;;;;;;;5019513;28;20539;-49
2021/06/07 06:10:53;;;;;;;8.27;3.28;;;;;;;;;;5015596;28;20048;-52
2021/06/07 06:13:19;;;;;;;5.80;3.28;;;;;;;;;;5011683;28;20037;-52
2021/06/07 06:15:45;;;;;;;6.55;2.88;;;;;;;;;;5017685;28;20038;-50
2021/06/07 06:18:11;;;;;;;6.07;2.67;;;;;;;;;;5018110;28;20025;-49
2021/06/07 06:20:37;;;;;;;5.13;3.30;;;;;;;;;;5011173;28;20030;-50
2021/06/07 06:23:03;;;;;;;6.25;2.90;;;;;;;;;;5000411;28;20029;-50
2021/06/07 06:25:29;;;;;;;4.70;2.53;;;;;;;;;;5010660;28;20042;-49
2021/06/07 06:27:55;;;;;;;4.70;3.20;;;;;;;;;;5010250;28;20075;-50
2021/06/07 06:30:23;;;;;;;4.47;2.75;;;;;;;;;;5010708;28;20030;-49
2021/06/07 06:32:51;;;;;;;7.38;2.50;;;;;;;;;;5007552;28;20050;-51
2021/06/07 06:35:17;;;;;;;5.70;2.80;;;;;;;;;;5007795;28;20026;-51
2021/06/07 06:37:44;;;;;;;8.73;2.83;;;;;;;;;;5010814;28;20434;-51
2021/06/07 06:40:11;;;;;;;8.18;2.70;;;;;;;;;;5011085;28;20044;-50
2021/06/07 06:42:39;;;;;;;5.10;2.53;;;;;;;;;;5012526;28;20064;-49
2021/06/07 06:45:05;;;;;;;3.85;2.47;;;;;;;;;;5010782;28;20034;-50
2021/06/07 06:47:31;;;;;;;4.45;2.60;;;;;;;;;;5012260;28;20034;-49
2021/06/07 06:49:58;;;;;;;4.38;2.60;;;;;;;;;;5010944;28;20048;-50
2021/06/07 06:52:25;;;;;;;5.95;2.55;;;;;;;;;;5005895;28;20034;-49
2021/06/07 06:54:51;;;;;;;5.90;2.80;;;;;;;;;;5010431;28;20045;-49
2021/06/07 06:57:17;;;;;;;6.05;2.50;;;;;;;;;;5015312;28;20033;-50
2021/06/07 06:59:43;;;;;;;5.68;2.30;;;;;;;;;;5011293;28;20033;-51
2021/06/07 07:02:09;;;;;;;7.25;2.50;;;;;;;;;;5009227;28;20205;-49
2021/06/07 07:04:36;;;;;;;4.22;2.47;;;;;;;;;;5011507;28;20061;-50
2021/06/07 07:07:02;;;;;;;6.78;2.55;;;;;;;;;;5010134;28;20034;-51
2021/06/07 07:09:28;;;;;;;5.40;2.15;;;;;;;;;;5010076;28;20115;-50
2021/06/07 07:11:54;;;;;;;5.57;2.33;;;;;;;;;;5010692;28;20038;-51
2021/06/07 07:14:20;;;;;;;4.63;2.58;;;;;;;;;;5013236;28;20025;-51
2021/06/07 07:16:46;;;;;;;5.13;2.20;;;;;;;;;;5011108;28;20018;-52
2021/06/07 07:19:12;;;;;;;5.05;2.38;;;;;;;;;;5012565;28;20033;-50
2021/06/07 07:21:38;;;;;;;8.05;2.60;;;;;;;;;;5009779;28;20023;-51
2021/06/07 07:24:04;;;;;;;3.17;2.17;;;;;;;;;;5013990;28;20029;-49
2021/06/07 07:26:30;;;;;;;7.53;2.00;;;;;;;;;;5016894;28;20048;-52
2021/06/07 07:28:56;;;;;;;6.65;2.22;;;;;;;;;;5006467;28;20072;-49
2021/06/07 07:31:22;;;;;;;4.00;2.28;;;;;;;;;;5020309;28;20053;-52
2021/06/07 07:33:49;;;;;;;3.00;2.00;;;;;;;;;;5001887;28;20038;-52
2021/06/07 07:36:16;;;;;;;6.10;2.30;;;;;;;;;;5015341;28;20030;-52
2021/06/07 07:38:42;;;;;;;3.63;2.17;;;;;;;;;;5021577;28;20102;-54
2021/06/07 07:41:08;;;;;;;12.63;2.30;;;;;;;;;;5015515;28;20037;-51
2021/06/07 07:43:34;;;;;;;6.07;2.38;;;;;;;;;;5018100;28;20037;-50
2021/06/07 07:46:00;;;;;;;6.55;2.97;;;;;;;;;;5014456;28;20026;-52
2021/06/07 07:48:26;;;;;;;3.17;1.95;;;;;;;;;;5016939;28;20030;-51
2021/06/07 07:50:52;;;;;;;3.42;2.00;;;;;;;;;;5014536;28;20375;-50
2021/06/07 07:53:20;;;;;;;2.95;2.10;;;;;;;;;;5020203;28;20025;-51
2021/06/07 07:55:46;;;;;;;5.15;2.35;;;;;;;;;;5027197;28;20033;-52
2021/06/07 07:58:12;;;;;;;8.55;2.40;;;;;;;;;;5031855;28;20040;-52
2021/06/07 08:00:39;;;;;;;4.93;2.30;;;;;;;;;;5025139;28;20018;-50
2021/06/07 08:03:05;;;;;;;5.18;2.17;;;;;;;;;;5013250;28;20429;-52
2021/06/07 08:05:32;;;;;;;9.73;2.30;;;;;;;;;;5012087;28;20029;-53
2021/06/07 08:07:58;;;;;;;3.65;2.38;;;;;;;;;;5025603;28;20026;-52
2021/06/07 08:10:24;;;;;;;4.85;2.30;;;;;;;;;;5012088;28;20097;-53
2021/06/07 08:12:50;;;;;;;7.35;2.22;;;;;;;;;;5011713;28;20482;-52
2021/06/07 08:15:16;;;;;;;4.95;2.40;;;;;;;;;;5012254;28;20129;-51
2021/06/07 08:17:42;;;;;;;5.45;2.30;;;;;;;;;;5021986;28;20034;-53
2021/06/07 08:20:11;;;;;;;8.32;2.17;;;;;;;;;;5010874;28;20022;-54
2021/06/07 08:22:37;;;;;;;7.82;2.47;;;;;;;;;;5012378;28;20474;-51
2021/06/07 08:25:04;;;;;;;3.45;2.42;;;;;;;;;;5011219;28;20112;-50
2021/06/07 08:27:30;;;;;;;4.47;2.53;;;;;;;;;;5013391;28;20132;-50
2021/06/07 08:29:57;;;;;;;4.18;2.25;;;;;;;;;;5013685;28;20611;-51
2021/06/07 08:32:23;;;;;;;3.95;2.67;;;;;;;;;;5013329;28;20060;-49
2021/06/07 08:34:49;;;;;;;4.55;2.05;;;;;;;;;;5011798;28;20030;-52
2021/06/07 08:37:15;;;;;;;5.53;2.40;;;;;;;;;;5012431;28;20037;-50
2021/06/07 08:39:41;;;;;;;4.95;2.80;;;;;;;;;;5025006;28;20106;-53
2021/06/07 08:42:10;;;;;;;7.35;2.20;;;;;;;;;;5032870;28;20112;-49
2021/06/07 08:44:36;;;;;;;5.82;2.35;;;;;;;;;;5012840;28;20026;-50
2021/06/07 08:47:02;;;;;;;6.78;2.38;;;;;;;;;;5008919;28;20037;-50
2021/06/07 08:49:28;;;;;;;5.22;2.72;;;;;;;;;;5015199;28;20563;-50
2021/06/07 08:51:54;;;;;;;6.72;3.33;;;;;;;;;;5013200;28;20484;-51
2021/06/07 08:54:20;;;;;;;6.22;2.28;;;;;;;;;;5020948;28;20026;-50
2021/06/07 08:56:46;;;;;;;4.97;1.90;;;;;;;;;;5014756;28;20061;-54
2021/06/07 08:59:13;;;;;;;3.67;1.88;;;;;;;;;;5014921;28;20014;-54
2021/06/07 09:01:39;;;;;;;7.82;2.33;;;;;;;;;;5023390;28;20034;-50
2021/06/07 09:04:09;;;;;;;5.03;2.10;;;;;;;;;;5015576;28;20037;-50
2021/06/07 09:06:38;;;;;;;5.90;2.65;;;;;;;;;;5018998;28;20421;-53
2021/06/07 09:09:06;;;;;;;2.67;2.08;;;;;;;;;;5013364;28;20108;-50
2021/06/07 09:11:41;;;;;;;2.92;1.88;;;;;;;;;;5011875;28;20112;-50
2021/06/07 09:14:17;;;;;;;8.43;2.50;;;;;;;;;;5025492;28;20026;-54
2021/06/07 09:16:43;;;;;;;6.30;2.78;;;;;;;;;;5019629;28;20362;-52
2021/06/07 09:19:20;;;;;;;4.18;2.40;;;;;;;;;;5019298;28;20022;-55
2021/06/07 09:21:46;;;;;;;4.78;1.90;;;;;;;;;;5012119;28;20049;-51
2021/06/07 09:24:13;;;;;;;3.38;1.90;;;;;;;;;;5015937;28;20420;-53
2021/06/07 09:26:42;;;;;;;9.77;2.63;;;;;;;;;;5014254;28;20037;-54
2021/06/07 09:29:13;;;;;;;3.47;2.17;;;;;;;;;;5015891;28;20029;-55
2021/06/07 09:31:46;;;;;;;3.55;2.20;;;;;;;;;;5013575;28;20053;-52
2021/06/07 09:34:23;;;;;;;6.93;2.03;;;;;;;;;;5020743;28;20584;-49
2021/06/07 09:36:49;;;;;;;3.47;1.98;;;;;;;;;;5014241;28;20038;-53
2021/06/07 09:39:21;;;;;;;3.05;1.98;;;;;;;;;;5013610;28;20080;-49
2021/06/07 09:41:54;;;;;;;6.40;2.13;;;;;;;;;;5004804;28;20042;-51
2021/06/07 09:44:22;;;;;;;3.33;2.00;;;;;;;;;;5010979;28;20053;-49
2021/06/07 09:46:49;;;;;;;9.35;1.90;;;;;;;;;;5011411;28;20025;-51
2021/06/07 09:49:16;;;;;;;6.00;2.13;;;;;;;;;;5027701;28;20425;-50
2021/06/07 09:51:52;;;;;;;4.78;2.20;;;;;;;;;;5017884;28;20033;-51
2021/06/07 09:54:18;;;;;;;2.33;1.52;;;;;;;;;;5011826;28;20136;-50
2021/06/07 09:57:02;;;;;;;9.10;2.50;;;;;;;;;;5022926;28;20116;-49
2021/06/07 09:59:33;;;;;;;3.80;1.92;;;;;;;;;;5013104;28;20026;-50
2021/06/07 10:02:00;;;;;;;3.22;1.92;;;;;;;;;;5012098;28;20030;-50
2021/06/07 10:04:44;;;;;;;3.42;1.80;;;;;;;;;;5018995;28;20481;-50
2021/06/07 10:07:10;;;;;;;6.05;2.22;;;;;;;;;;5029949;28;20377;-50
2021/06/07 10:09:36;;;;;;;5.55;2.08;;;;;;;;;;5012706;28;20033;-49
2021/06/07 10:12:02;;;;;;;4.32;2.30;;;;;;;;;;5027259;28;20029;-49
2021/06/07 10:14:28;;;;;;;5.25;2.05;;;;;;;;;;5024309;28;20481;-52
2021/06/07 10:17:02;;;;;;;6.07;2.03;;;;;;;;;;5014880;28;20036;-49
2021/06/07 10:22:14;;;;;;;6.53;2.37;;;;;;;;;;5011968;28;20025;-50
2021/06/07 10:24:40;;;;;;;2.63;1.90;;;;;;;;;;5012025;28;20168;-53
2021/06/07 10:27:07;;;;;;;3.05;1.85;;;;;;;;;;5010952;28;20104;-51
2021/06/07 10:29:34;;;;;;;4.28;1.92;;;;;;;;;;5011127;28;20063;-50
2021/06/07 10:32:06;;;;;;;3.20;2.00;;;;;;;;;;5012221;28;20053;-54
2021/06/07 10:34:46;;;;;;;3.83;1.98;;;;;;;;;;5009352;28;20113;-50
2021/06/07 10:37:12;;;;;;;3.22;2.10;;;;;;;;;;5011583;28;20060;-52
2021/06/07 10:39:38;;;;;;;6.10;2.28;;;;;;;;;;5016756;28;20542;-50
2021/06/07 10:42:10;;;;;;;4.70;1.80;;;;;;;;;;5009748;28;20039;-52
2021/06/07 10:44:36;;;;;;;3.17;1.88;;;;;;;;;;5010863;28;20374;-50
2021/06/07 10:47:06;;;;;;;4.03;2.20;;;;;;;;;;5020098;28;20022;-50
2021/06/07 10:49:40;;;;;;;7.82;2.00;;;;;;;;;;5025503;28;20030;-51
2021/06/07 10:52:09;;;;;;;3.78;2.05;;;;;;;;;;5012070;28;20034;-51
2021/06/07 10:54:36;;;;;;;3.35;1.90;;;;;;;;;;5020159;28;20038;-49
2021/06/07 10:57:21;;;;;;;2.25;1.63;;;;;;;;;;5032038;28;20032;-52
2021/06/07 10:59:48;;;;;;;7.30;1.98;;;;;;;;;;5028725;28;20084;-49
2021/06/07 11:02:17;;;;;;;5.57;2.03;;;;;;;;;;5017045;28;20037;-50
2021/06/07 11:04:44;;;;;;;4.57;2.17;;;;;;;;;;5014588;28;20161;-50
2021/06/07 11:07:10;;;;;;;3.83;1.98;;;;;;;;;;5016999;28;20528;-49
2021/06/07 11:09:37;;;;;;;3.45;1.83;;;;;;;;;;5026363;28;20041;-49
2021/06/07 11:12:06;;;;;;;3.05;2.10;;;;;;;;;;5024793;28;20026;-50
2021/06/07 11:14:51;;;;;;;3.47;1.98;;;;;;;;;;5022214;28;20033;-50
2021/06/07 11:17:26;;;;;;;2.22;1.42;;;;;;;;;;5026976;28;20036;-52
2021/06/07 11:19:52;;;;;;;3.97;1.80;;;;;;;;;;5027277;28;20372;-50
2021/06/07 11:22:18;;;;;;;3.00;2.00;;;;;;;;;;5025105;28;20787;-50
2021/06/07 11:24:45;;;;;;;4.53;1.92;;;;;;;;;;5016331;28;20523;-51
2021/06/07 11:27:31;;;;;;;4.88;1.67;;;;;;;;;;5015897;28;20049;-49
2021/06/07 11:30:07;;;;;;;5.40;2.00;;;;;;;;;;5025250;28;20116;-54
2021/06/07 11:32:33;;;;;;;6.82;2.00;;;;;;;;;;5018017;28;20041;-54
2021/06/07 11:34:59;;;;;;;3.80;1.80;;;;;;;;;;5015826;28;20639;-54
2021/06/07 11:37:35;;;;;;;2.92;1.70;;;;;;;;;;5016925;28;20037;-50
2021/06/07 11:40:03;;;;;;;4.20;2.05;;;;;;;;;;5015078;28;20475;-51
2021/06/07 11:42:30;;;;;;;4.10;1.75;;;;;;;;;;5017909;28;20025;-53
2021/06/07 11:44:57;;;;;;;3.42;2.47;;;;;;;;;;5026087;28;20401;-55
2021/06/07 11:47:26;;;;;;;3.72;1.70;;;;;;;;;;5022983;28;20514;-51
2021/06/07 11:49:58;;;;;;;2.80;1.88;;;;;;;;;;5023144;28;20037;-51
2021/06/07 11:52:34;;;;;;;3.55;2.47;;;;;;;;;;5014237;28;20465;-50
2021/06/07 11:55:00;;;;;;;6.63;2.13;;;;;;;;;;5030516;28;20465;-50
2021/06/07 11:57:27;;;;;;;3.72;2.03;;;;;;;;;;5032922;28;20459;-53
2021/06/07 11:59:57;;;;;;;4.82;2.20;;;;;;;;;;5017245;28;20480;-53
2021/06/07 12:02:24;;;;;;;3.85;1.92;;;;;;;;;;5026690;28;20076;-50
2021/06/07 12:04:50;;;;;;;3.97;1.85;;;;;;;;;;5020156;28;20105;-51
2021/06/07 12:07:17;;;;;;;5.47;2.30;;;;;;;;;;5022476;28;20429;-53
2021/06/07 12:09:47;;;;;;;2.88;2.13;;;;;;;;;;5016378;28;20462;-53
2021/06/07 12:12:13;;;;;;;4.15;2.30;;;;;;;;;;5024278;28;20071;-54
2021/06/07 12:14:41;;;;;;;4.47;1.80;;;;;;;;;;5028072;28;20036;-56
2021/06/07 12:17:16;;;;;;;2.90;1.60;;;;;;;;;;5030015;28;20054;-52
2021/06/07 12:19:43;;;;;;;3.88;1.85;;;;;;;;;;5021507;28;20031;-55
2021/06/07 12:22:25;;;;;;;3.55;1.80;;;;;;;;;;5024873;28;20109;-53
2021/06/07 12:25:01;;;;;;;2.17;1.70;;;;;;;;;;5021152;28;20034;-52
2021/06/07 12:30:14;;;;;;;14.63;2.00;;;;;;;;;;5014942;28;20041;-53
2021/06/07 12:32:40;;;;;;;4.53;1.77;;;;;;;;;;5009680;28;20053;-52
2021/06/07 12:35:13;;;;;;;5.70;1.67;;;;;;;;;;5016369;28;20378;-54
2021/06/07 12:37:46;;;;;;;4.05;2.00;;;;;;;;;;5016924;28;20700;-54
2021/06/07 12:40:14;;;;;;;2.28;1.40;;;;;;;;;;5019047;28;20044;-56
2021/06/07 12:42:40;;;;;;;2.60;1.50;;;;;;;;;;5018643;28;20105;-56
2021/06/07 12:45:17;;;;;;;3.53;1.83;;;;;;;;;;5013606;28;20026;-54
2021/06/07 12:47:43;;;;;;;3.22;1.98;;;;;;;;;;5015493;28;20061;-52
2021/06/07 12:50:15;;;;;;;4.40;1.65;;;;;;;;;;5012847;28;20033;-55
2021/06/07 12:52:41;;;;;;;2.30;1.38;;;;;;;;;;5013421;28;20034;-55
2021/06/07 12:55:08;;;;;;;4.95;1.42;;;;;;;;;;5022119;28;20044;-51
2021/06/07 12:57:34;;;;;;;3.72;1.45;;;;;;;;;;5017519;28;20033;-54
2021/06/07 13:00:00;;;;;;;2.83;1.33;;;;;;;;;;5014913;28;20025;-55
2021/06/07 13:02:33;;;;;;;2.67;1.23;;;;;;;;;;5014626;28;20096;-56
2021/06/07 13:04:59;;;;;;;4.10;1.48;;;;;;;;;;5013774;28;20026;-54
2021/06/07 13:07:25;;;;;;;2.15;1.40;;;;;;;;;;5027510;28;20498;-52
2021/06/07 13:09:53;;;;;;;4.43;1.52;;;;;;;;;;5014845;28;20030;-52
2021/06/07 13:12:24;;;;;;;2.95;1.58;;;;;;;;;;5021169;28;20065;-53
2021/06/07 13:14:51;;;;;;;2.40;1.50;;;;;;;;;;5011011;28;20041;-51
2021/06/07 13:17:19;;;;;;;5.10;1.80;;;;;;;;;;5011664;28;20105;-54
2021/06/07 13:19:50;;;;;;;6.07;1.52;;;;;;;;;;5012976;28;20378;-53
2021/06/07 13:22:16;;;;;;;3.97;1.50;;;;;;;;;;5016889;28;20107;-53
2021/06/07 13:24:43;;;;;;;1.65;1.27;;;;;;;;;;5028194;28;20433;-52
2021/06/07 13:27:25;;;;;;;5.90;1.70;;;;;;;;;;5025639;28;20029;-51
2021/06/07 13:29:53;;;;;;;2.30;1.40;;;;;;;;;;5019795;28;20492;-49
2021/06/07 13:32:29;;;;;;;2.55;1.58;;;;;;;;;;5009745;28;20048;-55
2021/06/07 13:35:04;;;;;;;3.75;1.65;;;;;;;;;;5011682;28;20030;-55
2021/06/07 13:37:34;;;;;;;2.55;1.15;;;;;;;;;;5014191;28;20120;-53
2021/06/07 13:40:11;;;;;;;3.17;1.20;;;;;;;;;;5014266;28;20029;-51
2021/06/07 13:42:39;;;;;;;4.38;1.55;;;;;;;;;;5013036;28;20026;-51
2021/06/07 13:45:06;;;;;;;1.77;1.20;;;;;;;;;;5011203;28;20034;-50
2021/06/07 13:47:35;;;;;;;4.00;0.95;;;;;;;;;;5021179;28;20029;-51
2021/06/07 13:50:15;;;;;;;2.90;1.20;;;;;;;;;;5016623;28;20029;-54
2021/06/07 13:52:46;;;;;;;1.55;1.02;;;;;;;;;;5016950;28;20038;-53
2021/06/07 13:55:16;;;;;;;2.22;1.13;;;;;;;;;;5011573;28;20049;-52
2021/06/07 13:58:01;;;;;;;3.13;1.33;;;;;;;;;;5013022;28;20056;-52
2021/06/07 14:00:28;;;;;;;5.90;1.15;;;;;;;;;;5012263;28;20498;-53
2021/06/07 14:02:54;;;;;;;3.00;1.20;;;;;;;;;;5012994;28;20034;-53
2021/06/07 14:05:24;;;;;;;1.65;1.10;;;;;;;;;;5011595;28;20044;-51
2021/06/07 14:07:50;;;;;;;1.88;0.90;;;;;;;;;;5015947;28;20387;-50
2021/06/07 14:10:17;;;;;;;2.83;1.25;;;;;;;;;;5019893;28;20496;-51
2021/06/07 14:12:43;;;;;;;1.77;1.55;;;;;;;;;;5020356;28;20030;-50
2021/06/07 14:15:09;;;;;;;3.97;1.10;;;;;;;;;;5010860;28;20485;-51
2021/06/07 14:17:35;;;;;;;3.53;1.30;;;;;;;;;;5027565;28;20033;-54
2021/06/07 14:20:01;;;;;;;5.85;1.65;;;;;;;;;;5009453;28;20430;-52
2021/06/07 14:25:13;;;;;;;5.07;1.33;;;;;;;;;;5009222;28;20040;-52
2021/06/07 14:27:39;;;;;;;2.10;1.17;;;;;;;;;;5009833;28;20153;-51
2021/06/07 14:30:06;;;;;;;2.97;1.17;;;;;;;;;;5012965;28;20041;-49
2021/06/07 14:32:32;;;;;;;7.95;1.33;;;;;;;;;;5014736;28;20037;-49
2021/06/07 14:34:58;;;;;;;2.50;0.80;;;;;;;;;;5029846;28;20489;-50
2021/06/07 14:37:24;;;;;;;3.45;1.23;;;;;;;;;;5020217;28;20482;-50
2021/06/07 14:39:50;;;;;;;2.83;1.30;;;;;;;;;;5024372;28;20026;-50
2021/06/07 14:42:16;;;;;;;4.38;1.10;;;;;;;;;;5035173;28;20444;-49
2021/06/07 14:44:42;;;;;;;2.00;1.20;;;;;;;;;;5031263;28;20033;-48
2021/06/07 14:47:08;;;;;;;2.67;0.98;;;;;;;;;;5014597;28;20113;-49
2021/06/07 14:49:34;;;;;;;2.58;1.30;;;;;;;;;;5015176;28;20030;-51
2021/06/07 14:52:01;;;;;;;4.53;1.40;;;;;;;;;;5014203;28;20048;-52
2021/06/07 14:54:28;;;;;;;2.20;1.23;;;;;;;;;;5014867;28;20022;-50